Time;durP1;ratioP1;P1;durP2;ratioP2;P2;SDS_P1;SDS_P2;PMS_P1;PMS_P2;Temp;Humidity;BMP_temperature;BMP_pressure;BME280_temperature;BME280_humidity;BME280_pressure;Samples;Min_cycle;Max_cycle;Signal;HPM_P1;HPM_P2
2023/05/05 07:23:11;;;;;;;7.75;6.95;;;;;;;-145.79;63.33;77356.06;5310031;27;20914;-71
2023/05/05 07:25:42;;;;;;;7.25;6.07;;;;;;;-145.79;62.68;77358.19;5309498;28;20039;-69
2023/05/05 07:28:14;;;;;;;9.68;6.43;;;;;;;-145.79;61.80;77370.91;5300940;28;20025;-69
2023/05/05 07:30:45;;;;;;;9.57;7.30;;;;;;;-145.79;62.66;77370.91;5300179;28;20398;-69
2023/05/05 07:33:19;;;;;;;8.07;6.00;;;;;;;-145.79;62.63;77356.06;5301831;28;20440;-69
2023/05/05 07:35:51;;;;;;;8.98;6.55;;;;;;;-145.79;62.18;77351.84;5300513;28;20052;-69
2023/05/05 07:38:24;;;;;;;7.78;7.18;;;;;;;-145.79;62.06;77353.97;5282747;28;20059;-69
2023/05/05 07:40:55;;;;;;;10.85;7.35;;;;;;;-145.79;62.66;77349.72;5279727;28;20021;-70
2023/05/05 07:43:26;;;;;;;10.60;7.50;;;;;;;-145.79;62.58;77330.66;5290747;28;20020;-69
2023/05/05 07:45:58;;;;;;;11.07;7.18;;;;;;;-145.79;62.29;77320.03;5300463;28;20513;-69
2023/05/05 07:48:29;;;;;;;7.57;6.80;;;;;;;-145.79;62.54;77313.69;5300880;28;20020;-67
2023/05/05 07:51:00;;;;;;;8.15;6.47;;;;;;;-145.79;61.87;77307.31;5300056;28;20035;-68
2023/05/05 07:53:32;;;;;;;7.05;6.35;;;;;;;-145.79;61.45;77300.97;5298340;28;20032;-68
2023/05/05 07:56:07;;;;;;;9.05;6.22;;;;;;;-145.79;61.48;77298.84;5279843;28;20025;-68
2023/05/05 07:58:38;;;;;;;7.57;6.18;;;;;;;-145.79;61.42;77292.50;5278300;28;20591;-68
2023/05/05 08:01:11;;;;;;;10.60;7.03;;;;;;;-145.79;61.15;77288.25;5279279;28;20059;-69
2023/05/05 08:03:42;;;;;;;7.47;6.68;;;;;;;-145.79;61.26;77275.53;5291457;28;20016;-68
2023/05/05 08:06:24;;;;;;;6.75;5.80;;;;;;;-145.79;60.54;77258.56;5299572;28;20033;-68
2023/05/05 08:08:55;;;;;;;7.82;5.45;;;;;;;-145.79;59.22;77252.22;5300638;28;20078;-68
2023/05/05 08:11:26;;;;;;;6.65;6.05;;;;;;;-145.79;59.00;77258.56;5298701;28;20020;-68
2023/05/05 08:13:58;;;;;;;9.68;6.70;;;;;;;-145.79;59.36;77252.22;5300123;28;20023;-67
2023/05/05 08:16:29;;;;;;;7.97;5.50;;;;;;;-145.79;58.65;77250.09;5300124;28;20026;-69
2023/05/05 08:19:01;;;;;;;7.63;5.65;;;;;;;-145.79;58.67;77243.75;5303508;28;20030;-69
2023/05/05 08:21:32;;;;;;;6.32;4.78;;;;;;;-145.79;58.22;77228.91;5306015;28;20040;-69
2023/05/05 08:24:03;;;;;;;5.57;4.47;;;;;;;-145.79;58.48;77209.81;5300211;28;20051;-68
2023/05/05 08:26:35;;;;;;;10.25;5.55;;;;;;;-145.79;58.27;77203.47;5302778;28;20103;-69
2023/05/05 08:29:06;;;;;;;7.55;5.15;;;;;;;-145.79;58.32;77184.41;5285602;28;20036;-69
2023/05/05 08:31:37;;;;;;;6.70;5.13;;;;;;;-145.79;58.02;77203.47;5303885;28;20020;-69
2023/05/05 08:34:09;;;;;;;6.30;5.35;;;;;;;-145.79;58.32;77188.63;5287386;28;20353;-69
2023/05/05 08:36:40;;;;;;;7.18;5.53;;;;;;;-145.79;57.91;77195.00;5285522;28;20020;-69
2023/05/05 08:39:11;;;;;;;5.43;4.63;;;;;;;-145.79;57.50;77188.63;5285180;28;20476;-69
2023/05/05 08:41:43;;;;;;;5.97;5.47;;;;;;;-145.79;58.51;77195.00;5289331;28;20111;-69
2023/05/05 08:44:20;;;;;;;9.93;6.97;;;;;;;-145.79;58.75;77207.72;5285687;28;20078;-69
2023/05/05 08:46:52;;;;;;;5.70;4.05;;;;;;;-145.79;56.80;77207.72;5267679;28;20017;-70
2023/05/05 08:49:24;;;;;;;6.85;4.05;;;;;;;-145.79;56.67;77199.22;5285645;28;20395;-69
2023/05/05 08:52:02;;;;;;;7.82;4.55;;;;;;;-145.79;56.84;77199.22;5285318;28;20099;-67
2023/05/05 08:54:37;;;;;;;5.75;4.05;;;;;;;-145.79;55.85;77192.88;5284690;28;20024;-68
2023/05/05 08:57:09;;;;;;;6.90;4.00;;;;;;;-145.79;56.67;77178.03;5285301;28;20032;-68
2023/05/05 08:59:42;;;;;;;5.85;4.35;;;;;;;-145.79;57.21;77195.00;5285295;28;20817;-68
2023/05/05 09:02:14;;;;;;;8.45;5.32;;;;;;;-145.79;57.31;77184.41;5275759;28;20025;-68
2023/05/05 09:04:50;;;;;;;8.50;4.78;;;;;;;-145.79;57.30;77173.78;5285000;28;20375;-69
2023/05/05 09:07:22;;;;;;;5.57;4.25;;;;;;;-145.79;57.33;77169.56;5287060;28;20085;-69
2023/05/05 09:09:53;;;;;;;4.03;3.30;;;;;;;-145.79;57.53;77165.31;5285091;28;20028;-68
2023/05/05 09:12:29;;;;;;;6.13;4.20;;;;;;;-145.79;57.27;77161.06;5284963;28;20090;-70
2023/05/05 09:15:02;;;;;;;7.25;3.90;;;;;;;-145.79;56.05;77156.84;5284572;28;20375;-68
2023/05/05 09:17:33;;;;;;;5.68;3.97;;;;;;;-145.79;56.37;77144.13;5284984;28;20398;-70
2023/05/05 09:20:06;;;;;;;7.72;3.83;;;;;;;-145.79;55.09;77137.75;5269825;28;20079;-75
2023/05/05 09:22:40;;;;;;;5.60;3.67;;;;;;;-145.79;54.18;77129.28;5263087;28;20140;-74
2023/05/05 09:25:19;;;;;;;4.43;3.13;;;;;;;-145.79;54.38;77139.88;5279452;28;20344;-75
2023/05/05 09:27:56;;;;;;;9.73;4.47;;;;;;;-145.79;55.85;77150.47;5284943;28;20025;-78
2023/05/05 09:30:28;;;;;;;4.68;3.25;;;;;;;-145.79;54.72;77156.84;5284309;28;20028;-80
2023/05/05 09:33:01;;;;;;;5.97;3.20;;;;;;;-145.79;52.92;77161.06;5284560;28;20025;-77
2023/05/05 09:35:54;;;;;;;5.47;3.67;;;;;;;-145.79;53.14;77161.06;5279861;28;20936;-77
2023/05/05 09:38:26;;;;;;;6.10;4.50;;;;;;;-145.79;53.64;77169.56;5278837;28;20024;-78
2023/05/05 09:40:57;;;;;;;5.88;3.95;;;;;;;-145.79;54.70;77158.97;5291040;28;20020;-79
2023/05/05 09:43:28;;;;;;;6.43;3.88;;;;;;;-145.79;53.44;77167.44;5283335;28;20438;-79
2023/05/05 09:46:07;;;;;;;6.13;4.68;;;;;;;-145.79;54.16;77173.78;5291151;28;20028;-79
2023/05/05 09:48:38;;;;;;;8.85;5.53;;;;;;;-145.79;54.66;77173.78;5304159;28;20364;-79
2023/05/05 09:51:09;;;;;;;5.82;5.25;;;;;;;-145.79;55.74;77167.44;5298067;28;20035;-80
2023/05/05 09:53:41;;;;;;;7.10;4.90;;;;;;;-145.79;56.03;77169.56;5288691;28;20043;-83
2023/05/05 09:56:12;;;;;;;9.43;4.60;;;;;;;-145.79;56.21;77171.69;5284314;28;20020;-75
2023/05/05 09:58:43;;;;;;;4.97;3.05;;;;;;;-145.79;55.02;77169.56;5282914;28;20054;-79
2023/05/05 10:01:22;;;;;;;4.95;3.30;;;;;;;-145.79;55.37;77173.78;5284041;28;20054;-80
2023/05/05 10:03:54;;;;;;;4.53;3.55;;;;;;;-145.79;55.75;77171.69;5287812;28;20046;-79
2023/05/05 10:06:47;;;;;;;4.45;3.33;;;;;;;-145.79;56.11;77178.03;5300780;28;20395;-79
2023/05/05 10:09:18;;;;;;;5.60;3.30;;;;;;;-145.79;56.15;77184.41;5303133;28;20105;-82
2023/05/05 10:11:49;;;;;;;6.72;4.70;;;;;;;-145.79;57.09;77195.00;5275966;28;20055;-80
2023/05/05 10:14:22;;;;;;;7.38;3.72;;;;;;;-145.79;57.59;77192.88;5295466;28;20035;-80
2023/05/05 10:16:54;;;;;;;3.53;2.67;;;;;;;-145.79;55.94;77216.19;5299633;28;20043;-81
2023/05/05 10:19:31;;;;;;;4.20;2.50;;;;;;;-145.79;55.86;77209.81;5283104;28;20464;-80
2023/05/05 10:22:07;;;;;;;4.18;2.72;;;;;;;-145.79;55.83;77224.66;5291206;28;20063;-80
2023/05/05 10:24:42;;;;;;;5.20;3.30;;;;;;;-145.79;57.50;77222.53;5303291;28;20020;-80
2023/05/05 10:27:18;;;;;;;8.52;4.20;;;;;;;-145.79;59.24;77211.94;5296673;28;20415;-81
2023/05/05 10:30:14;;;;;;;8.13;4.70;;;;;;;-145.79;59.95;77209.81;5305361;28;20020;-80
2023/05/05 10:33:49;;;;;;;5.72;4.22;;;;;;;-145.79;61.08;77214.06;5304218;28;20372;-79
2023/05/05 10:46:24;;;;;;;10.20;7.57;;;;;;;-145.79;68.66;77267.06;5241472;28;20108;-81
2023/05/05 10:49:58;;;;;;;8.02;7.10;;;;;;;-145.79;70.39;77294.59;5240649;28;20041;-80
2023/05/05 10:53:05;;;;;;;7.10;5.85;;;;;;;-145.79;72.05;77315.81;5241702;28;20469;-80
2023/05/05 10:56:16;;;;;;;7.05;5.45;;;;;;;-145.79;73.41;77320.03;5269985;28;20028;-83
2023/05/05 10:58:48;;;;;;;7.90;6.63;;;;;;;-145.79;73.53;77317.94;5264735;28;20045;-84
2023/05/05 11:01:39;;;;;;;7.72;6.40;;;;;;;-145.79;75.46;77320.03;5273122;28;20028;-80
2023/05/05 11:04:21;;;;;;;9.38;6.57;;;;;;;-145.79;77.54;77332.75;5248207;28;20122;-81
2023/05/05 11:07:07;;;;;;;8.68;6.78;;;;;;;-145.79;79.31;77347.59;5275515;28;20052;-78
2023/05/05 11:09:54;;;;;;;11.60;7.57;;;;;;;-145.79;80.05;77343.38;5282073;28;20111;-79
2023/05/05 11:12:27;;;;;;;8.88;7.85;;;;;;;-145.79;80.01;77383.63;5281907;28;20413;-79
2023/05/05 11:15:26;;;;;;;9.48;7.22;;;;;;;-145.79;83.11;77390.00;5265365;28;20380;-80
2023/05/05 11:18:01;;;;;;;8.05;6.72;;;;;;;-145.79;83.66;77390.00;5261063;28;20101;-81
2023/05/05 11:20:35;;;;;;;8.85;7.63;;;;;;;-145.79;85.16;77411.19;5241502;28;20025;-77
2023/05/05 11:23:07;;;;;;;10.07;8.17;;;;;;;-145.79;84.89;77419.66;5271581;28;20060;-79
2023/05/05 11:25:39;;;;;;;32.15;28.98;;;;;;;-145.79;85.98;77413.31;5272868;28;20647;-79
2023/05/05 11:28:23;;;;;;;9.18;7.57;;;;;;;-145.79;86.29;77442.97;5263039;28;20025;-79
2023/05/05 11:30:57;;;;;;;8.45;7.55;;;;;;;-145.79;86.65;77438.75;5262000;28;20056;-78
2023/05/05 11:33:39;;;;;;;7.70;6.43;;;;;;;-145.79;87.11;77419.66;5262082;28;20025;-78
2023/05/05 11:36:15;;;;;;;6.40;5.43;;;;;;;-145.79;86.02;77438.75;5261073;28;20028;-78
2023/05/05 11:39:06;;;;;;;5.50;3.83;;;;;;;-145.79;83.37;77423.91;5247770;28;20041;-77
2023/05/05 11:41:58;;;;;;;7.55;5.03;;;;;;;-145.79;82.38;77417.53;5262308;28;20035;-77
2023/05/05 11:44:32;;;;;;;4.53;3.70;;;;;;;-145.79;84.03;77402.72;5261462;28;20047;-77
2023/05/05 11:47:04;;;;;;;8.57;5.20;;;;;;;-145.79;83.10;77430.25;5269458;28;20091;-77
2023/05/05 11:49:38;;;;;;;8.15;6.82;;;;;;;-145.79;82.84;77428.16;5276732;28;20039;-77
2023/05/05 11:52:11;;;;;;;5.00;4.10;;;;;;;-145.79;83.07;77430.25;5261881;28;20025;-77
2023/05/05 11:54:49;;;;;;;4.97;3.80;;;;;;;-145.79;84.55;77468.41;5272364;28;20036;-76
2023/05/05 11:57:26;;;;;;;6.72;4.00;;;;;;;-145.79;86.96;77449.34;5281073;28;20025;-78
2023/05/05 12:00:04;;;;;;;4.50;3.13;;;;;;;-145.79;86.46;77468.41;5271365;28;20078;-78
2023/05/05 12:02:36;;;;;;;4.88;3.05;;;;;;;-145.79;84.78;77487.50;5261389;28;20534;-77
2023/05/05 12:05:18;;;;;;;2.83;2.53;;;;;;;-145.79;84.55;77491.75;5273719;28;20379;-78
2023/05/05 12:07:55;;;;;;;3.30;2.35;;;;;;;-145.79;82.95;77495.97;5282601;28;20115;-76
2023/05/05 12:10:30;;;;;;;4.85;2.65;;;;;;;-145.79;82.34;77466.31;5272107;28;20025;-77
2023/05/05 12:13:01;;;;;;;3.05;2.22;;;;;;;-145.79;82.03;77449.34;5278729;28;20085;-76
2023/05/05 12:15:32;;;;;;;2.67;2.47;;;;;;;-145.79;79.87;77472.66;5272352;28;20041;-76
2023/05/05 12:18:05;;;;;;;2.35;2.00;;;;;;;-145.79;80.47;77457.81;5263178;28;20025;-76
2023/05/05 12:20:36;;;;;;;15.18;13.70;;;;;;;-145.79;81.26;77451.47;5266211;28;20032;-77
2023/05/05 12:23:11;;;;;;;3.42;2.72;;;;;;;-145.79;79.53;77487.50;5265763;28;20036;-80
2023/05/05 12:25:42;;;;;;;3.33;2.60;;;;;;;-145.79;80.64;77512.94;5267222;28;20024;-80
2023/05/05 12:28:13;;;;;;;2.78;2.58;;;;;;;-145.79;81.95;77495.97;5286355;28;20468;-78
2023/05/05 12:30:55;;;;;;;4.72;2.83;;;;;;;-145.79;82.48;77489.63;5283706;28;20099;-80
2023/05/05 12:33:27;;;;;;;5.18;2.88;;;;;;;-145.79;82.48;77485.38;5273888;28;20044;-80
2023/05/05 12:35:58;;;;;;;6.43;3.00;;;;;;;-145.79;83.99;77466.31;5265624;28;20029;-82
2023/05/05 12:38:29;;;;;;;4.75;3.60;;;;;;;-145.79;82.67;77453.59;5270586;28;20488;-79
2023/05/05 12:41:01;;;;;;;6.53;3.42;;;;;;;-145.79;83.07;77442.97;5264858;28;20115;-78
2023/05/05 12:43:34;;;;;;;4.72;2.95;;;;;;;-145.79;82.37;77449.34;5272332;28;20025;-80
2023/05/05 12:46:11;;;;;;;3.00;2.50;;;;;;;-145.79;82.86;77428.16;5265037;28;20107;-86
2023/05/05 12:48:58;;;;;;;4.22;2.90;;;;;;;-145.79;82.90;77415.44;5272985;28;20468;-80
2023/05/05 12:51:34;;;;;;;4.22;3.08;;;;;;;-145.79;83.42;77409.06;5274036;28;20071;-85
2023/05/05 12:54:08;;;;;;;6.70;3.67;;;;;;;-145.79;82.62;77409.06;5254408;28;20025;-84
2023/05/05 12:56:42;;;;;;;4.25;3.53;;;;;;;-145.79;82.48;77402.72;5267072;28;20037;-84
2023/05/05 12:59:19;;;;;;;5.85;3.60;;;;;;;-145.79;81.10;77394.22;5281431;28;20090;-81
2023/05/05 13:01:52;;;;;;;3.75;3.08;;;;;;;-145.79;80.63;77398.47;5274476;28;20071;-81
2023/05/05 13:04:25;;;;;;;4.28;3.05;;;;;;;-145.79;80.36;77426.03;5265450;28;20029;-83
2023/05/05 13:07:14;;;;;;;5.40;2.80;;;;;;;-145.79;81.26;77449.34;5264832;28;20415;-82
2023/05/05 13:09:49;;;;;;;5.28;3.55;;;;;;;-145.79;81.92;77472.66;5266054;28;20047;-82
2023/05/05 13:12:21;;;;;;;4.57;2.53;;;;;;;-145.79;82.95;77479.03;5264626;28;20047;-82
2023/05/05 13:14:52;;;;;;;5.13;3.10;;;;;;;-145.79;83.60;77485.38;5264495;28;20020;-78
2023/05/05 13:17:26;;;;;;;4.25;3.03;;;;;;;-145.79;85.03;77498.09;5264817;28;20090;-80
2023/05/05 13:19:58;;;;;;;4.38;3.20;;;;;;;-145.79;85.11;77521.41;5267802;28;20033;-81
2023/05/05 13:22:29;;;;;;;3.47;2.80;;;;;;;-145.79;86.51;77517.16;5284681;28;20102;-80
2023/05/05 13:25:01;;;;;;;3.85;3.40;;;;;;;-145.79;86.43;77523.53;5286069;28;20028;-81
2023/05/05 13:27:32;;;;;;;3.42;3.13;;;;;;;-145.79;86.70;77515.06;5265070;28;20132;-82
2023/05/05 13:30:04;;;;;;;4.15;3.05;;;;;;;-145.79;85.56;77515.06;5264309;28;20109;-80
2023/05/05 13:32:36;;;;;;;6.82;3.00;;;;;;;-145.79;85.56;77529.88;5273201;28;20033;-80
2023/05/05 13:35:07;;;;;;;3.80;3.30;;;;;;;-145.79;86.09;77544.72;5267406;28;20028;-80
2023/05/05 13:37:40;;;;;;;5.22;3.38;;;;;;;-145.79;85.62;77551.09;5263799;28;20475;-78
2023/05/05 13:40:12;;;;;;;3.28;2.97;;;;;;;-145.79;85.27;77563.81;5272182;28;20097;-79
2023/05/05 13:42:43;;;;;;;4.57;2.90;;;;;;;-145.79;86.62;77565.94;5284572;28;20028;-80
2023/05/05 13:45:16;;;;;;;6.28;2.80;;;;;;;-145.79;85.90;77563.81;5283783;28;20036;-78
2023/05/05 13:47:47;;;;;;;2.17;1.73;;;;;;;-145.79;85.19;77570.16;5267083;28;20025;-77
2023/05/05 13:50:18;;;;;;;2.72;2.10;;;;;;;-145.79;86.71;77546.84;5262937;28;20035;-78
2023/05/05 13:52:50;;;;;;;3.35;2.55;;;;;;;-145.79;87.13;77540.50;5264018;28;20021;-77
2023/05/05 13:55:21;;;;;;;3.25;2.63;;;;;;;-145.79;86.98;77534.13;5264076;28;20017;-72
2023/05/05 13:57:53;;;;;;;6.40;5.22;;;;;;;-145.79;86.70;77506.56;5263152;28;20025;-76
2023/05/05 14:00:25;;;;;;;4.63;3.55;;;;;;;-145.79;86.01;77506.56;5261305;28;20048;-75
2023/05/05 14:02:57;;;;;;;3.60;2.67;;;;;;;-145.79;86.42;77525.66;5261993;28;20048;-77
2023/05/05 14:05:28;;;;;;;6.53;4.70;;;;;;;-145.79;85.81;77493.84;5263232;28;20025;-76
2023/05/05 14:07:59;;;;;;;12.85;11.65;;;;;;;-145.79;85.14;77504.47;5262887;28;20021;-77
2023/05/05 14:10:30;;;;;;;6.05;4.50;;;;;;;-145.79;84.68;77508.69;5262773;28;20028;-76
2023/05/05 14:13:02;;;;;;;3.20;2.85;;;;;;;-145.79;85.61;77504.47;5262954;28;20029;-76
2023/05/05 14:15:34;;;;;;;3.13;2.83;;;;;;;-145.79;85.37;77504.47;5263231;28;20460;-77
2023/05/05 14:18:06;;;;;;;3.67;2.92;;;;;;;-145.79;85.57;77472.66;5262583;28;20032;-77
2023/05/05 14:20:37;;;;;;;4.60;3.70;;;;;;;-145.79;85.18;77479.03;5263142;28;20025;-73
2023/05/05 14:23:08;;;;;;;5.13;3.88;;;;;;;-145.79;83.94;77483.25;5263760;28;20033;-74
2023/05/05 14:25:40;;;;;;;13.23;10.77;;;;;;;-145.79;82.94;77479.03;5260489;28;20078;-74
2023/05/05 14:28:11;;;;;;;3.38;3.08;;;;;;;-145.79;83.53;77470.53;5262436;28;20035;-75
2023/05/05 14:30:42;;;;;;;3.63;2.88;;;;;;;-145.79;82.88;77459.94;5262139;28;20021;-77
2023/05/05 14:33:13;;;;;;;3.33;2.40;;;;;;;-145.79;82.91;77462.06;5261773;28;20435;-77
2023/05/05 14:35:45;;;;;;;3.40;2.55;;;;;;;-145.79;83.92;77453.59;5262641;28;20485;-79
2023/05/05 14:38:16;;;;;;;3.67;2.35;;;;;;;-145.79;83.28;77468.41;5261897;28;20045;-77
2023/05/05 14:40:47;;;;;;;3.95;3.17;;;;;;;-145.79;83.57;77472.66;5261362;28;20388;-78
2023/05/05 14:43:19;;;;;;;5.43;3.22;;;;;;;-145.79;83.86;77453.59;5263530;28;20028;-74
2023/05/05 14:45:51;;;;;;;3.33;2.60;;;;;;;-145.79;83.23;77436.63;5262053;28;20037;-78
2023/05/05 14:48:32;;;;;;;;;;;;;;;;;;;;;
2023/05/05 14:51:04;;;;;;;2.30;1.90;;;;;;;-145.79;79.23;77447.22;5260790;28;20033;-77
2023/05/05 14:53:35;;;;;;;2.50;2.30;;;;;;;-145.79;81.87;77436.63;5262689;28;20031;-79
2023/05/05 14:56:07;;;;;;;2.40;2.20;;;;;;;-145.79;81.47;77419.66;5263121;28;20068;-77
2023/05/05 14:58:38;;;;;;;3.58;2.05;;;;;;;-145.79;79.95;77434.50;5261530;28;20017;-78
2023/05/05 15:01:09;;;;;;;3.35;1.90;;;;;;;-145.79;80.17;77432.38;5262026;28;20025;-77
2023/05/05 15:03:41;;;;;;;2.67;1.98;;;;;;;-145.79;79.49;77419.66;5263534;28;20119;-75
2023/05/05 15:06:12;;;;;;;102.00;91.25;;;;;;;-145.79;79.46;77440.88;5263003;28;20025;-74
2023/05/05 15:08:43;;;;;;;21.63;19.30;;;;;;;-145.79;79.13;77428.16;5278029;28;20024;-74
2023/05/05 15:11:15;;;;;;;4.07;3.63;;;;;;;-145.79;76.70;77415.44;5274333;28;20032;-73
2023/05/05 15:13:46;;;;;;;2.75;2.25;;;;;;;-145.79;76.70;77404.84;5260666;28;20024;-75
2023/05/05 15:16:17;;;;;;;3.55;2.65;;;;;;;-145.79;79.62;77415.44;5261279;28;20017;-73
2023/05/05 15:18:52;;;;;;;3.25;2.17;;;;;;;-145.79;78.96;77402.72;5260814;28;20464;-72
2023/05/05 15:21:23;;;;;;;3.53;2.63;;;;;;;-145.79;80.12;77377.28;5261167;28;20021;-73
2023/05/05 15:23:54;;;;;;;2.08;1.85;;;;;;;-145.79;77.01;77375.16;5261795;28;20033;-73
2023/05/05 15:26:28;;;;;;;2.85;2.42;;;;;;;-145.79;78.46;77387.88;5261078;28;20540;-74
2023/05/05 15:28:59;;;;;;;2.08;1.88;;;;;;;-145.79;78.91;77377.28;5261261;28;20515;-76
2023/05/05 15:31:31;;;;;;;4.55;2.13;;;;;;;-145.79;77.76;77379.41;5262066;28;20020;-79
2023/05/05 15:34:02;;;;;;;3.97;2.30;;;;;;;-145.79;77.58;77373.03;5261382;28;20028;-76
2023/05/05 15:36:33;;;;;;;3.28;2.47;;;;;;;-145.79;77.82;77377.28;5262434;28;20025;-75
2023/05/05 15:39:04;;;;;;;2.67;2.40;;;;;;;-145.79;78.11;77390.00;5261165;28;20042;-72
2023/05/05 15:41:36;;;;;;;5.10;4.60;;;;;;;-145.79;78.18;77390.00;5261787;28;20021;-79
2023/05/05 15:44:10;;;;;;;4.00;2.70;;;;;;;-145.79;77.85;77390.00;5264386;28;20029;-76
2023/05/05 15:46:42;;;;;;;2.37;2.00;;;;;;;-145.79;77.51;77400.59;5266045;28;20025;-79
2023/05/05 15:49:13;;;;;;;2.72;2.50;;;;;;;-145.79;78.74;77381.50;5265028;28;20036;-78
2023/05/05 15:51:44;;;;;;;3.65;2.58;;;;;;;-145.79;78.19;77368.78;5264383;28;20105;-78
2023/05/05 15:54:15;;;;;;;4.72;2.85;;;;;;;-145.79;77.64;77360.31;5266558;28;20435;-89
2023/05/05 15:56:47;;;;;;;3.97;2.65;;;;;;;-145.79;78.14;77377.28;5270634;28;20055;-88
2023/05/05 15:59:19;;;;;;;3.20;2.45;;;;;;;-145.79;79.13;77402.72;5268862;28;20024;-83
2023/05/05 16:01:50;;;;;;;3.55;3.22;;;;;;;-145.79;79.59;77383.63;5268070;28;20047;-86
2023/05/05 16:04:21;;;;;;;3.67;2.90;;;;;;;-145.79;78.08;77398.47;5267167;28;20060;-86
2023/05/05 16:06:54;;;;;;;4.32;2.97;;;;;;;-145.79;78.00;77381.50;5267796;28;20072;-86
2023/05/05 16:09:25;;;;;;;3.95;3.25;;;;;;;-145.79;78.65;77373.03;5267757;28;20476;-87
2023/05/05 16:11:56;;;;;;;3.97;3.10;;;;;;;-145.79;78.88;77368.78;5267278;28;20040;-85
2023/05/05 16:14:30;;;;;;;2.97;2.60;;;;;;;-145.79;80.01;77364.56;5267434;28;20025;-80
2023/05/05 16:17:02;;;;;;;3.80;2.80;;;;;;;-145.79;79.57;77368.78;5267428;28;20033;-83
2023/05/05 16:19:33;;;;;;;8.18;7.43;;;;;;;-145.79;78.85;77368.78;5267106;28;20419;-83
2023/05/05 16:22:04;;;;;;;4.10;3.70;;;;;;;-145.79;78.22;77343.38;5273180;28;20066;-86
2023/05/05 16:24:36;;;;;;;5.00;2.55;;;;;;;-145.79;77.00;77330.66;5286424;28;20021;-88
2023/05/05 16:27:07;;;;;;;3.08;2.50;;;;;;;-145.79;76.39;77326.41;5288403;28;20005;-92
2023/05/05 16:29:38;;;;;;;2.95;2.65;;;;;;;-145.79;76.61;77320.03;5291252;28;20043;-91
2023/05/05 16:32:10;;;;;;;3.03;2.60;;;;;;;-145.79;76.48;77307.31;5280653;28;20107;-91
2023/05/05 16:34:42;;;;;;;3.80;2.67;;;;;;;-145.79;76.13;77317.94;5278081;28;20017;-90
2023/05/05 16:37:13;;;;;;;3.08;2.65;;;;;;;-145.79;76.43;77307.31;5273002;28;20037;-92
2023/05/05 16:39:44;;;;;;;36.90;33.33;;;;;;;-145.79;76.40;77307.31;5274866;28;20025;-93
2023/05/05 16:42:19;;;;;;;3.35;2.65;;;;;;;-145.79;75.53;77288.25;5274381;28;20021;-90
2023/05/05 16:44:50;;;;;;;6.13;2.90;;;;;;;-145.79;73.93;77284.00;5267183;28;20107;-81
2023/05/05 16:47:21;;;;;;;4.55;2.33;;;;;;;-145.79;73.25;77298.84;5265092;28;20108;-80
2023/05/05 16:49:55;;;;;;;4.25;2.38;;;;;;;-145.79;73.67;77271.28;5264703;28;20487;-79
2023/05/05 16:52:29;;;;;;;3.42;2.00;;;;;;;-145.79;70.88;77277.66;5264295;28;20115;-80
2023/05/05 16:55:03;;;;;;;2.80;2.00;;;;;;;-145.79;70.72;77281.91;5264127;28;20029;-74
